Weather at Baltimore/Washington International Thurgood Marshall Airport

Public forecast

Using degrees Fahrenheit for public forecast. Weather courtesy of forecast.io.

Current aviation weather report (METAR) for Baltimore/Washington International Thurgood Marshall Airport

Retrieved 2021/08/04 13:54 UTC (39 minutes ago):

KBWI 041354Z 01005KT 10SM SCT210 OVC240 22/15 A3011 RMK AO2 SLP196 T02220150

Aviation forecast (TAF) for Baltimore/Washington International Thurgood Marshall Airport

Retrieved 2021/08/04 12:42 UTC (2 hours ago):

TAF KBWI 041140Z 0412/0518 VRB03KT P6SM OVC250 FM041500 06011KT P6SM BKN250 FM050300 VRB04KT P6SM SKC